createdAt,value
2019-04-03T00:00:04.768Z,18.80
2019-04-03T00:01:04.729Z,17.50
2019-04-03T00:02:04.418Z,18.50
2019-04-03T00:03:04.679Z,15.80
2019-04-03T00:04:04.666Z,13.60
2019-04-03T00:05:04.583Z,15.10
2019-04-03T00:06:05.483Z,19.30
2019-04-03T00:07:05.573Z,17.60
2019-04-03T00:08:05.977Z,15.80
2019-04-03T00:09:06.130Z,19.60
2019-04-03T00:10:04.755Z,15.70
2019-04-03T00:11:04.147Z,17.80
2019-04-03T00:12:04.271Z,19.60
2019-04-03T00:13:04.132Z,16.20
2019-04-03T00:14:04.129Z,15.90
2019-04-03T00:15:04.150Z,15.10
2019-04-03T00:16:04.121Z,15.80
2019-04-03T00:17:04.185Z,20.30
2019-04-03T00:18:04.193Z,22.20
2019-04-03T00:19:04.112Z,16.30
2019-04-03T00:20:04.232Z,19.20
2019-04-03T00:21:04.096Z,16.40
2019-04-03T00:22:04.114Z,20.20
2019-04-03T00:23:04.089Z,20.50
2019-04-03T00:24:04.082Z,25.50
2019-04-03T00:25:04.077Z,17.20
2019-04-03T00:26:04.075Z,19.00
2019-04-03T00:27:04.070Z,19.60
2019-04-03T00:28:04.068Z,17.30
2019-04-03T00:29:04.105Z,24.00
2019-04-03T00:30:04.055Z,17.80
2019-04-03T00:31:04.050Z,23.50
2019-04-03T00:32:04.046Z,19.60
2019-04-03T00:33:04.041Z,19.90
2019-04-03T00:34:04.038Z,21.40
2019-04-03T00:35:04.033Z,21.50
2019-04-03T00:36:04.028Z,25.00
2019-04-03T00:37:04.028Z,22.70
2019-04-03T00:38:04.032Z,24.50
2019-04-03T00:39:04.016Z,24.60
2019-04-03T00:40:04.008Z,19.50
2019-04-03T00:41:04.005Z,22.20
2019-04-03T00:42:03.999Z,25.90
2019-04-03T00:43:03.995Z,18.70
2019-04-03T00:44:03.991Z,22.50
2019-04-03T00:45:03.984Z,24.10
2019-04-03T00:46:03.981Z,21.70
2019-04-03T00:47:03.977Z,22.50
2019-04-03T00:48:03.973Z,24.80
2019-04-03T00:49:03.965Z,20.30
2019-04-03T00:50:03.961Z,20.40
2019-04-03T00:51:03.962Z,25.80
2019-04-03T00:52:03.953Z,24.30
2019-04-03T00:53:04.101Z,22.90
2019-04-03T00:54:03.945Z,26.80
2019-04-03T00:55:04.008Z,23.90
2019-04-03T00:56:03.935Z,25.60
2019-04-03T00:57:03.930Z,24.20
2019-04-03T00:58:03.928Z,24.40
2019-04-03T00:59:03.921Z,21.50
2019-04-03T01:00:04.057Z,19.50
2019-04-03T01:01:03.911Z,22.10
2019-04-03T01:02:03.908Z,17.30
2019-04-03T01:03:03.909Z,23.40
2019-04-03T01:04:03.897Z,17.00
2019-04-03T01:05:04.044Z,18.20
2019-04-03T01:06:03.900Z,19.20
2019-04-03T01:07:03.884Z,15.10
2019-04-03T01:08:03.877Z,14.60
2019-04-03T01:09:03.877Z,14.60
2019-04-03T01:10:03.868Z,17.20
2019-04-03T01:11:03.863Z,14.10
2019-04-03T01:12:03.859Z,12.30
2019-04-03T01:13:03.853Z,13.20
2019-04-03T01:14:03.847Z,12.80
2019-04-03T01:15:03.844Z,11.20
2019-04-03T01:16:03.979Z,11.00
2019-04-03T01:17:04.523Z,9.00
2019-04-03T01:18:05.152Z,11.70
2019-04-03T01:19:05.816Z,10.00
2019-04-03T01:20:06.056Z,7.90
2019-04-03T01:21:06.247Z,9.20
2019-04-03T01:22:03.809Z,9.60
2019-04-03T01:23:03.911Z,8.30
2019-04-03T01:24:03.801Z,7.60
2019-04-03T01:25:03.795Z,8.10
2019-04-03T01:26:03.792Z,12.70
2019-04-03T01:27:03.787Z,9.90
2019-04-03T01:28:03.782Z,8.60
2019-04-03T01:29:03.862Z,10.50
2019-04-03T01:30:03.876Z,8.20
2019-04-03T01:31:03.768Z,8.80
2019-04-03T01:32:03.766Z,9.10
2019-04-03T01:33:03.756Z,9.20
2019-04-03T01:34:03.752Z,9.60
2019-04-03T01:35:03.748Z,8.20
2019-04-03T01:36:03.755Z,6.50
2019-04-03T01:37:03.738Z,6.30
2019-04-03T01:38:03.733Z,7.50
2019-04-03T01:39:03.727Z,7.10
2019-04-03T01:40:03.723Z,10.20
2019-04-03T01:41:03.801Z,8.50
2019-04-03T01:42:03.713Z,9.80
2019-04-03T01:43:03.709Z,8.50
2019-04-03T01:44:03.705Z,7.00
2019-04-03T01:45:03.752Z,9.20
2019-04-03T01:46:03.692Z,5.70
2019-04-03T01:47:03.690Z,6.80
2019-04-03T01:48:03.718Z,7.00
2019-04-03T01:49:03.679Z,7.60
2019-04-03T01:50:03.675Z,9.70
2019-04-03T01:51:03.669Z,5.40
2019-04-03T01:52:03.666Z,5.40
2019-04-03T01:53:03.660Z,7.10
2019-04-03T01:54:03.720Z,5.50
2019-04-03T01:55:04.324Z,5.90
2019-04-03T01:56:05.154Z,4.50
2019-04-03T01:57:06.219Z,5.40
2019-04-03T01:58:06.239Z,6.50
2019-04-03T01:59:04.788Z,7.70
2019-04-03T02:00:03.625Z,7.20
2019-04-03T02:01:03.622Z,5.50
2019-04-03T02:02:03.613Z,5.50
2019-04-03T02:03:03.611Z,5.20
2019-04-03T02:04:03.725Z,6.60
2019-04-03T02:05:03.601Z,4.50
2019-04-03T02:06:03.665Z,5.10
2019-04-03T02:07:03.588Z,3.30
2019-04-03T02:08:03.583Z,4.70
2019-04-03T02:09:03.580Z,4.20
2019-04-03T02:10:03.573Z,4.10
2019-04-03T02:11:03.570Z,3.90
2019-04-03T02:12:03.567Z,5.20
2019-04-03T02:13:03.742Z,7.00
2019-04-03T02:14:03.555Z,3.30
2019-04-03T02:15:03.549Z,3.80
2019-04-03T02:16:03.726Z,5.10
2019-04-03T02:17:03.668Z,4.30
2019-04-03T02:18:03.536Z,4.70
2019-04-03T02:19:03.528Z,3.20
2019-04-03T02:20:03.523Z,4.50
2019-04-03T02:21:03.525Z,6.50
2019-04-03T02:22:03.512Z,4.20
2019-04-03T02:23:03.507Z,4.70
2019-04-03T02:24:03.502Z,4.80
2019-04-03T02:25:03.496Z,3.10
2019-04-03T02:26:03.507Z,4.10
2019-04-03T02:27:03.571Z,3.20
2019-04-03T02:28:03.861Z,4.30
2019-04-03T02:29:04.857Z,3.20
2019-04-03T02:30:03.489Z,3.30
2019-04-03T02:31:03.522Z,3.70
2019-04-03T02:32:03.461Z,4.30
2019-04-03T02:33:03.504Z,3.80
2019-04-03T02:34:03.456Z,5.60
2019-04-03T02:35:06.996Z,4.30
2019-04-03T02:36:03.448Z,4.70
2019-04-03T02:37:03.436Z,4.70
2019-04-03T02:38:03.595Z,3.80
2019-04-03T02:39:03.425Z,4.00
2019-04-03T02:40:03.420Z,4.10
2019-04-03T02:41:04.066Z,5.00
2019-04-03T02:42:03.410Z,3.70
2019-04-03T02:43:03.466Z,3.80
2019-04-03T02:44:03.401Z,4.00
2019-04-03T02:45:03.396Z,5.60
2019-04-03T02:46:03.488Z,4.30
2019-04-03T02:47:03.384Z,6.00
2019-04-03T02:48:05.612Z,4.80
2019-04-03T02:49:03.421Z,4.00
2019-04-03T02:50:03.694Z,4.90
2019-04-03T02:51:03.364Z,4.10
2019-04-03T02:52:03.411Z,3.70
2019-04-03T02:53:03.547Z,6.10
2019-04-03T02:54:03.371Z,3.90
2019-04-03T02:55:06.402Z,7.20
2019-04-03T02:56:03.347Z,4.80
2019-04-03T02:57:03.754Z,3.30
2019-04-03T02:58:03.325Z,4.20
2019-04-03T02:59:03.375Z,3.50
2019-04-03T03:00:03.315Z,3.70
2019-04-03T03:01:05.976Z,4.40
2019-04-03T03:02:03.306Z,4.60
2019-04-03T03:03:03.309Z,3.90
2019-04-03T03:04:03.296Z,3.70
2019-04-03T03:05:03.349Z,4.70
2019-04-03T03:06:03.284Z,4.10
2019-04-03T03:07:04.443Z,7.00
2019-04-03T03:08:03.274Z,3.10
2019-04-03T03:09:03.300Z,4.40
2019-04-03T03:10:03.800Z,4.40
2019-04-03T03:11:03.335Z,4.10
2019-04-03T03:12:03.477Z,6.40
2019-04-03T03:13:03.245Z,4.50
2019-04-03T03:14:06.185Z,3.70
2019-04-03T03:15:03.243Z,3.30
2019-04-03T03:16:03.291Z,4.30
2019-04-03T03:17:03.348Z,4.10
2019-04-03T03:18:03.512Z,4.50
2019-04-03T03:19:03.213Z,4.60
2019-04-03T03:20:06.948Z,4.30
2019-04-03T03:21:03.204Z,5.50
2019-04-03T03:22:03.542Z,4.30
2019-04-03T03:23:03.195Z,3.70
2019-04-03T03:24:03.323Z,3.80
2019-04-03T03:25:03.188Z,3.50
2019-04-03T03:26:04.778Z,3.80
2019-04-03T03:27:03.173Z,4.20
2019-04-03T03:28:03.168Z,3.70
2019-04-03T03:29:16.666Z,3.90
2019-04-03T03:30:27.725Z,3.40
2019-04-03T03:31:05.718Z,6.50
2019-04-03T03:32:13.816Z,3.80
2019-04-03T03:33:24.132Z,11.70
2019-04-03T03:34:05.242Z,4.80
2019-04-03T03:35:11.573Z,3.70
2019-04-03T03:36:03.759Z,3.60
2019-04-03T03:37:03.591Z,3.50
2019-04-03T03:38:04.659Z,7.00
2019-04-03T03:39:03.109Z,4.30
2019-04-03T03:40:03.292Z,4.10
2019-04-03T03:41:03.110Z,4.00
2019-04-03T03:42:03.090Z,4.00
2019-04-03T03:43:05.386Z,4.60
2019-04-03T03:44:03.084Z,3.60
2019-04-03T03:45:03.263Z,4.30
2019-04-03T03:46:03.183Z,4.60
2019-04-03T03:47:03.077Z,5.70
2019-04-03T03:48:03.376Z,6.10
2019-04-03T03:49:03.058Z,5.30
2019-04-03T03:50:03.047Z,4.80
2019-04-03T03:51:03.144Z,3.00
2019-04-03T03:52:04.776Z,3.30
2019-04-03T03:53:03.052Z,3.90
2019-04-03T03:54:03.027Z,3.00
2019-04-03T03:55:03.035Z,3.80
2019-04-03T03:56:03.062Z,5.00
2019-04-03T03:57:04.806Z,3.40
2019-04-03T03:58:03.022Z,2.70
2019-04-03T03:59:03.207Z,4.50
2019-04-03T04:00:03.305Z,5.10
2019-04-03T04:01:03.009Z,3.80
2019-04-03T04:02:05.212Z,3.20
2019-04-03T04:03:03.001Z,4.60
2019-04-03T04:04:03.245Z,3.00
2019-04-03T04:05:02.975Z,4.30
2019-04-03T04:06:02.961Z,3.40
2019-04-03T04:07:04.514Z,3.20
2019-04-03T04:08:03.147Z,3.60
2019-04-03T04:09:02.944Z,5.10
2019-04-03T04:10:03.039Z,3.80
2019-04-03T04:11:03.334Z,4.10
2019-04-03T04:12:06.214Z,3.70
2019-04-03T04:13:02.939Z,4.30
2019-04-03T04:14:02.918Z,4.20
2019-04-03T04:15:03.097Z,3.80
2019-04-03T04:16:04.361Z,3.70
2019-04-03T04:17:02.902Z,5.00
2019-04-03T04:18:02.897Z,5.50
2019-04-03T04:19:03.145Z,3.20
2019-04-03T04:20:05.186Z,3.50
2019-04-03T04:21:02.882Z,4.10
2019-04-03T04:22:03.416Z,5.20
2019-04-03T04:23:02.974Z,6.40
2019-04-03T04:24:03.060Z,5.80
2019-04-03T04:25:02.877Z,5.40
2019-04-03T04:26:02.856Z,3.30
2019-04-03T04:27:03.487Z,4.50
2019-04-03T04:28:02.839Z,4.50
2019-04-03T04:29:02.834Z,3.10
2019-04-03T04:30:02.893Z,4.50
2019-04-03T04:31:02.837Z,3.70
2019-04-03T04:32:02.817Z,4.00
2019-04-03T04:33:03.132Z,3.90
2019-04-03T04:34:02.968Z,4.80
2019-04-03T04:35:02.801Z,3.50
2019-04-03T04:36:02.796Z,5.60
2019-04-03T04:37:03.140Z,3.00
2019-04-03T04:38:02.853Z,5.10
2019-04-03T04:39:02.909Z,4.00
2019-04-03T04:40:02.774Z,5.10
2019-04-03T04:41:02.767Z,4.00
2019-04-03T04:42:04.340Z,6.30
2019-04-03T04:43:04.147Z,6.50
2019-04-03T04:44:02.750Z,4.50
2019-04-03T04:45:02.747Z,5.00
2019-04-03T04:46:02.739Z,4.60
2019-04-03T04:47:02.736Z,4.20
2019-04-03T04:48:02.728Z,5.00
2019-04-03T04:49:02.769Z,3.80
2019-04-03T04:50:02.719Z,5.80
2019-04-03T04:51:02.710Z,6.40
2019-04-03T04:52:02.713Z,3.80
2019-04-03T04:53:02.701Z,4.20
2019-04-03T04:54:02.698Z,4.10
2019-04-03T04:55:02.877Z,4.20
2019-04-03T04:56:02.683Z,3.90
2019-04-03T04:57:02.679Z,4.70
2019-04-03T04:58:04.664Z,6.90
2019-04-03T04:59:02.669Z,6.10
2019-04-03T05:00:02.662Z,4.90
2019-04-03T05:01:02.655Z,3.80
2019-04-03T05:02:02.651Z,4.00
2019-04-03T05:03:02.644Z,6.00
2019-04-03T05:04:02.696Z,4.40
2019-04-03T05:05:02.633Z,3.90
2019-04-03T05:06:02.630Z,6.30
2019-04-03T05:07:02.796Z,6.40
2019-04-03T05:08:02.737Z,6.30
2019-04-03T05:09:03.854Z,5.80
2019-04-03T05:10:03.853Z,4.00
2019-04-03T05:11:02.825Z,7.40
2019-04-03T05:12:02.595Z,4.60
2019-04-03T05:13:02.610Z,6.50
2019-04-03T05:14:02.583Z,5.90
2019-04-03T05:15:02.578Z,7.70
2019-04-03T05:16:02.681Z,6.30
2019-04-03T05:17:02.568Z,8.60
2019-04-03T05:18:02.562Z,4.20
2019-04-03T05:19:09.765Z,6.50
2019-04-03T05:20:02.552Z,6.00
2019-04-03T05:21:02.544Z,5.00
2019-04-03T05:22:02.542Z,3.70
2019-04-03T05:23:02.673Z,7.20
2019-04-03T05:24:11.588Z,8.30
2019-04-03T05:25:02.521Z,5.80
2019-04-03T05:26:02.518Z,3.70
2019-04-03T05:27:03.282Z,5.90
2019-04-03T05:28:04.212Z,5.30
2019-04-03T05:29:02.993Z,6.80
2019-04-03T05:30:05.274Z,7.00
2019-04-03T05:31:02.491Z,7.10
2019-04-03T05:32:02.489Z,5.50
2019-04-03T05:33:02.480Z,5.40
2019-04-03T05:34:02.476Z,4.80
2019-04-03T05:35:02.659Z,4.90
2019-04-03T05:36:02.463Z,4.20
2019-04-03T05:37:02.458Z,7.20
2019-04-03T05:38:02.451Z,4.30
2019-04-03T05:39:03.125Z,4.90
2019-04-03T05:40:02.441Z,5.20
2019-04-03T05:41:02.634Z,4.70
2019-04-03T05:42:02.438Z,4.20
2019-04-03T05:43:02.425Z,4.90
2019-04-03T05:44:02.798Z,4.30
2019-04-03T05:45:04.235Z,6.70
2019-04-03T05:46:03.848Z,6.10
2019-04-03T05:47:02.402Z,6.40
2019-04-03T05:48:02.401Z,8.00
2019-04-03T05:49:02.391Z,6.50
2019-04-03T05:50:02.392Z,6.50
2019-04-03T05:51:02.382Z,5.90
2019-04-03T05:52:04.047Z,6.30
2019-04-03T05:53:02.371Z,6.10
2019-04-03T05:54:02.363Z,7.50
2019-04-03T05:55:02.573Z,6.40
2019-04-03T05:56:02.358Z,5.30
2019-04-03T05:57:02.350Z,5.50
2019-04-03T05:58:02.343Z,5.10
2019-04-03T05:59:03.035Z,5.30
2019-04-03T06:00:02.782Z,4.10
2019-04-03T06:01:04.821Z,4.30
2019-04-03T06:02:14.237Z,6.70
2019-04-03T06:03:02.424Z,6.30
2019-04-03T06:04:02.314Z,4.50
2019-04-03T06:05:02.363Z,5.40
2019-04-03T06:06:02.300Z,5.20
2019-04-03T06:07:02.297Z,5.20
2019-04-03T06:08:02.291Z,5.20
2019-04-03T06:09:02.512Z,5.50
2019-04-03T06:10:02.553Z,4.50
2019-04-03T06:11:03.977Z,6.50
2019-04-03T06:12:02.276Z,4.70
2019-04-03T06:13:05.122Z,5.80
2019-04-03T06:14:02.264Z,5.80
2019-04-03T06:15:02.256Z,6.00
2019-04-03T06:16:02.248Z,6.10
2019-04-03T06:17:02.244Z,6.70
2019-04-03T06:18:02.241Z,6.00
2019-04-03T06:19:02.238Z,5.10
2019-04-03T06:20:02.256Z,7.20
2019-04-03T06:21:02.222Z,5.00
2019-04-03T06:22:02.349Z,5.30
2019-04-03T06:23:02.222Z,8.10
2019-04-03T06:24:02.209Z,4.70
2019-04-03T06:25:02.355Z,4.20
2019-04-03T06:26:02.499Z,7.90
2019-04-03T06:27:02.194Z,6.50
2019-04-03T06:28:02.186Z,4.90
2019-04-03T06:29:02.182Z,7.30
2019-04-03T06:30:02.181Z,6.30
2019-04-03T06:31:02.170Z,11.00
2019-04-03T06:32:02.166Z,7.50
2019-04-03T06:33:02.238Z,5.50
2019-04-03T06:34:02.155Z,4.80
2019-04-03T06:35:02.152Z,10.50
2019-04-03T06:36:02.148Z,6.30
2019-04-03T06:37:02.139Z,9.20
2019-04-03T06:38:02.332Z,4.40
2019-04-03T06:39:02.170Z,10.90
2019-04-03T06:40:02.848Z,4.80
2019-04-03T06:41:02.122Z,5.70
2019-04-03T06:42:02.265Z,7.00
2019-04-03T06:43:02.109Z,5.50
2019-04-03T06:44:02.105Z,10.10
2019-04-03T06:45:02.104Z,7.10
2019-04-03T06:46:02.096Z,5.10
2019-04-03T06:47:02.098Z,7.00
2019-04-03T06:48:04.282Z,5.00
2019-04-03T06:49:02.088Z,6.50
2019-04-03T06:50:02.208Z,6.70
2019-04-03T06:51:02.069Z,5.80
2019-04-03T06:52:02.223Z,5.80
2019-04-03T06:53:02.063Z,8.10
2019-04-03T06:54:02.053Z,6.10
2019-04-03T06:55:03.302Z,5.70
2019-04-03T06:56:02.042Z,6.30
2019-04-03T06:57:02.101Z,5.20
2019-04-03T06:58:02.031Z,4.90
2019-04-03T06:59:02.025Z,5.20
2019-04-03T07:00:02.257Z,7.30
2019-04-03T07:01:02.015Z,5.30
2019-04-03T07:02:02.011Z,8.70
2019-04-03T07:03:03.891Z,6.80
2019-04-03T07:04:02.004Z,9.30
2019-04-03T07:05:02.613Z,5.60
2019-04-03T07:06:02.243Z,6.40
2019-04-03T07:07:02.222Z,7.40
2019-04-03T07:08:04.462Z,6.80
2019-04-03T07:09:04.711Z,5.70
2019-04-03T07:10:02.290Z,9.30
2019-04-03T07:11:01.965Z,5.00
2019-04-03T07:12:01.961Z,5.40
2019-04-03T07:13:01.954Z,8.50
2019-04-03T07:14:01.949Z,4.50
2019-04-03T07:15:02.141Z,5.80
2019-04-03T07:16:01.940Z,6.30
2019-04-03T07:17:05.100Z,5.20
2019-04-03T07:18:05.166Z,6.10
2019-04-03T07:19:01.924Z,7.00
2019-04-03T07:20:12.597Z,8.00
2019-04-03T07:21:01.912Z,5.50
2019-04-03T07:22:02.152Z,7.40
2019-04-03T07:23:01.904Z,5.90
2019-04-03T07:24:02.238Z,6.30
2019-04-03T07:25:03.545Z,7.30
2019-04-03T07:26:02.939Z,4.90
2019-04-03T07:27:01.885Z,6.10
2019-04-03T07:28:01.881Z,7.30
2019-04-03T07:29:01.872Z,8.60
2019-04-03T07:30:01.869Z,6.50
2019-04-03T07:31:02.029Z,8.30
2019-04-03T07:32:01.859Z,5.80
2019-04-03T07:33:01.854Z,8.60
2019-04-03T07:34:03.311Z,5.20
2019-04-03T07:35:05.177Z,5.90
2019-04-03T07:36:01.838Z,4.20
2019-04-03T07:37:01.996Z,8.80
2019-04-03T07:38:01.829Z,5.50
2019-04-03T07:39:01.994Z,7.80
2019-04-03T07:40:01.823Z,12.80
2019-04-03T07:41:01.876Z,10.00
2019-04-03T07:42:01.809Z,12.50
2019-04-03T07:43:01.803Z,5.90
2019-04-03T07:44:01.808Z,5.40
2019-04-03T07:45:03.014Z,9.00
2019-04-03T07:46:03.385Z,8.00
2019-04-03T07:47:03.883Z,8.30
2019-04-03T07:48:01.786Z,4.60
2019-04-03T07:49:01.772Z,6.40
2019-04-03T07:50:01.770Z,5.80
2019-04-03T07:51:01.960Z,5.10
2019-04-03T07:52:01.756Z,6.20
2019-04-03T07:53:01.753Z,5.00
2019-04-03T07:54:04.233Z,6.90
2019-04-03T07:55:02.174Z,5.60
2019-04-03T07:56:01.768Z,6.30
2019-04-03T07:57:01.868Z,8.30
2019-04-03T07:58:01.729Z,4.20
2019-04-03T07:59:03.269Z,5.30
2019-04-03T08:00:01.717Z,3.60
2019-04-03T08:01:01.711Z,3.60
2019-04-03T08:02:01.704Z,4.40
2019-04-03T08:03:01.700Z,3.20
2019-04-03T08:04:02.020Z,3.30
2019-04-03T08:05:01.692Z,3.80
2019-04-03T08:06:03.285Z,3.40
2019-04-03T08:07:01.678Z,3.10
2019-04-03T08:08:02.097Z,3.40
2019-04-03T08:09:08.807Z,4.30
2019-04-03T08:10:01.732Z,3.60
2019-04-03T08:11:01.930Z,4.70
2019-04-03T08:12:03.440Z,4.70
2019-04-03T08:13:01.821Z,3.20
2019-04-03T08:14:01.643Z,3.90
2019-04-03T08:15:01.662Z,3.90
2019-04-03T08:16:01.705Z,5.10
2019-04-03T08:17:01.628Z,4.60
2019-04-03T08:18:01.667Z,5.60
2019-04-03T08:19:01.617Z,6.30
2019-04-03T08:20:01.613Z,8.80
2019-04-03T08:21:02.244Z,6.20
2019-04-03T08:22:02.037Z,4.80
2019-04-03T08:23:04.511Z,4.00
2019-04-03T08:24:01.592Z,4.50
2019-04-03T08:25:01.592Z,4.40
2019-04-03T08:26:01.806Z,4.60
2019-04-03T08:27:01.623Z,5.90
2019-04-03T08:28:01.848Z,4.20
2019-04-03T08:29:02.256Z,3.30
2019-04-03T08:30:01.564Z,3.70
2019-04-03T08:31:01.559Z,4.70
2019-04-03T08:32:01.553Z,3.20
2019-04-03T08:33:01.546Z,6.00
2019-04-03T08:34:14.301Z,11.80
2019-04-03T08:35:03.822Z,7.40
2019-04-03T08:36:01.532Z,5.90
2019-04-03T08:37:02.254Z,8.20
2019-04-03T08:38:01.523Z,5.20
2019-04-03T08:39:01.525Z,3.90
2019-04-03T08:40:02.001Z,5.30
2019-04-03T08:41:03.341Z,5.50
2019-04-03T08:42:01.505Z,3.00
2019-04-03T08:43:01.501Z,3.10
2019-04-03T08:44:03.314Z,2.40
2019-04-03T08:45:01.675Z,3.80
2019-04-03T08:46:01.778Z,5.30
2019-04-03T08:47:01.479Z,6.40
2019-04-03T08:48:01.474Z,4.20
2019-04-03T08:49:01.609Z,4.50
2019-04-03T08:50:02.417Z,4.30
2019-04-03T08:51:03.003Z,4.50
2019-04-03T08:52:01.623Z,3.80
2019-04-03T08:53:01.451Z,4.20
2019-04-03T08:54:01.448Z,6.20
2019-04-03T08:55:01.578Z,4.00
2019-04-03T08:56:01.466Z,3.80
2019-04-03T08:57:01.434Z,3.40
2019-04-03T08:58:01.428Z,5.20
2019-04-03T08:59:01.479Z,5.20
2019-04-03T09:00:01.998Z,3.70
2019-04-03T09:01:03.671Z,3.70
2019-04-03T09:02:01.525Z,4.30
2019-04-03T09:03:03.520Z,3.20
2019-04-03T09:04:01.405Z,4.80
2019-04-03T09:05:01.399Z,3.30
2019-04-03T09:06:01.397Z,4.80
2019-04-03T09:07:01.394Z,4.30
2019-04-03T09:08:01.389Z,4.70
2019-04-03T09:09:01.383Z,3.20
2019-04-03T09:10:01.520Z,3.80
2019-04-03T09:11:04.182Z,4.30
2019-04-03T09:12:01.373Z,5.40
2019-04-03T09:13:01.368Z,3.20
2019-04-03T09:14:01.366Z,3.60
2019-04-03T09:15:01.362Z,4.00
2019-04-03T09:16:01.368Z,3.80
2019-04-03T09:17:02.724Z,5.40
2019-04-03T09:18:01.758Z,8.10
2019-04-03T09:19:01.347Z,6.60
2019-04-03T09:20:01.345Z,4.30
2019-04-03T09:21:01.339Z,4.60
2019-04-03T09:22:01.340Z,5.10
2019-04-03T09:23:01.332Z,4.10
2019-04-03T09:24:01.335Z,4.10
2019-04-03T09:25:01.325Z,9.60
2019-04-03T09:26:03.101Z,5.40
2019-04-03T09:27:01.319Z,4.90
2019-04-03T09:28:01.320Z,4.90
2019-04-03T09:29:01.311Z,4.30
2019-04-03T09:30:01.309Z,7.70
2019-04-03T09:31:01.337Z,5.00
2019-04-03T09:32:01.468Z,4.30
2019-04-03T09:33:01.563Z,4.90
2019-04-03T09:34:01.297Z,4.80
2019-04-03T09:35:02.324Z,5.80
2019-04-03T09:36:03.685Z,4.60
2019-04-03T09:37:01.319Z,5.90
2019-04-03T09:38:01.280Z,4.20
2019-04-03T09:39:01.554Z,9.00
2019-04-03T09:40:01.277Z,4.90
2019-04-03T09:41:01.269Z,7.10
2019-04-03T09:42:01.268Z,4.10
2019-04-03T09:43:01.263Z,9.40
2019-04-03T09:44:01.261Z,6.30
2019-04-03T09:45:01.256Z,7.20
2019-04-03T09:46:01.356Z,4.60
2019-04-03T09:47:02.904Z,4.50
2019-04-03T09:48:01.480Z,4.50
2019-04-03T09:49:01.282Z,5.90
2019-04-03T09:50:01.241Z,6.50
2019-04-03T09:51:01.236Z,5.70
2019-04-03T09:52:01.235Z,6.30
2019-04-03T09:53:02.491Z,5.40
2019-04-03T09:54:01.426Z,5.20
2019-04-03T09:55:01.226Z,4.80
2019-04-03T09:56:01.392Z,4.90
2019-04-03T09:57:04.708Z,5.10
2019-04-03T09:58:03.275Z,5.40
2019-04-03T09:59:01.442Z,6.40
2019-04-03T10:00:01.407Z,8.50
2019-04-03T10:01:01.210Z,7.30
2019-04-03T10:02:01.205Z,6.70
2019-04-03T10:03:01.203Z,8.90
2019-04-03T10:04:01.202Z,6.80
2019-04-03T10:05:01.198Z,6.00
2019-04-03T10:06:01.198Z,7.50
2019-04-03T10:07:02.018Z,9.50
2019-04-03T10:08:01.499Z,5.90
2019-04-03T10:09:01.186Z,8.90
2019-04-03T10:10:01.180Z,6.20
2019-04-03T10:11:01.402Z,5.70
2019-04-03T10:12:01.176Z,8.20
2019-04-03T10:13:01.171Z,6.60
2019-04-03T10:14:01.168Z,6.20
2019-04-03T10:15:01.199Z,6.60
2019-04-03T10:16:03.374Z,6.50
2019-04-03T10:17:01.160Z,6.80
2019-04-03T10:18:01.156Z,6.20
2019-04-03T10:19:01.579Z,6.60
2019-04-03T10:20:01.148Z,8.50
2019-04-03T10:21:01.144Z,7.20
2019-04-03T10:22:01.143Z,8.80
2019-04-03T10:23:01.139Z,5.70
2019-04-03T10:24:01.137Z,6.50
2019-04-03T10:25:04.885Z,6.40
2019-04-03T10:26:01.209Z,6.90
2019-04-03T10:27:01.763Z,6.00
2019-04-03T10:28:01.123Z,7.30
2019-04-03T10:29:01.300Z,7.80
2019-04-03T10:30:01.119Z,5.80
2019-04-03T10:31:01.110Z,5.90
2019-04-03T10:32:01.107Z,5.50
2019-04-03T10:33:01.109Z,5.90
2019-04-03T10:34:03.150Z,6.10
2019-04-03T10:35:01.152Z,5.90
2019-04-03T10:36:01.092Z,7.10
2019-04-03T10:37:01.312Z,6.40
2019-04-03T10:38:01.085Z,6.50
2019-04-03T10:39:01.178Z,5.70
2019-04-03T10:40:01.213Z,6.00
2019-04-03T10:41:01.073Z,6.40
2019-04-03T10:42:01.322Z,6.70
2019-04-03T10:43:02.751Z,6.30
2019-04-03T10:44:01.062Z,8.30
2019-04-03T10:45:01.058Z,9.60
2019-04-03T10:46:01.054Z,6.80
2019-04-03T10:47:01.054Z,8.90
2019-04-03T10:48:01.160Z,9.10
2019-04-03T10:49:01.272Z,6.60
2019-04-03T10:50:04.236Z,6.20
2019-04-03T10:51:01.038Z,8.70
2019-04-03T10:52:01.033Z,8.50
2019-04-03T10:53:01.124Z,9.70
2019-04-03T10:54:01.026Z,6.10
2019-04-03T10:55:01.057Z,8.40
2019-04-03T10:56:01.161Z,9.00
2019-04-03T10:57:02.973Z,8.30
2019-04-03T10:58:02.294Z,11.70
2019-04-03T10:59:10.302Z,8.10
2019-04-03T11:00:01.087Z,9.00
2019-04-03T11:01:01.173Z,9.80
2019-04-03T11:02:00.994Z,12.90
2019-04-03T11:03:00.992Z,14.00
2019-04-03T11:04:01.214Z,12.00
2019-04-03T11:05:00.983Z,11.10
2019-04-03T11:06:00.981Z,11.90
2019-04-03T11:07:01.183Z,10.70
2019-04-03T11:08:00.974Z,11.30
2019-04-03T11:09:01.054Z,11.90
2019-04-03T11:10:01.135Z,11.60
2019-04-03T11:11:03.767Z,12.70
2019-04-03T11:12:01.361Z,12.20
2019-04-03T11:13:02.653Z,10.00
2019-04-03T11:14:02.405Z,8.50
2019-04-03T11:15:00.957Z,10.50
2019-04-03T11:16:00.945Z,11.00
2019-04-03T11:17:00.945Z,9.90
2019-04-03T11:18:00.941Z,11.10
2019-04-03T11:19:04.798Z,10.70
2019-04-03T11:20:00.931Z,9.40
2019-04-03T11:21:01.092Z,15.00
2019-04-03T11:22:00.924Z,10.40
2019-04-03T11:23:06.288Z,10.70
2019-04-03T11:24:01.247Z,8.90
2019-04-03T11:25:00.918Z,10.30
2019-04-03T11:26:00.918Z,8.80
2019-04-03T11:27:00.906Z,8.40
2019-04-03T11:28:00.926Z,10.30
2019-04-03T11:29:00.918Z,8.90
2019-04-03T11:30:01.926Z,12.80
2019-04-03T11:31:01.611Z,13.30
2019-04-03T11:32:00.960Z,9.40
2019-04-03T11:33:00.889Z,8.30
2019-04-03T11:34:00.885Z,9.30
2019-04-03T11:35:00.880Z,8.60
2019-04-03T11:36:01.091Z,9.70
2019-04-03T11:37:01.698Z,8.40
2019-04-03T11:38:12.021Z,11.20
2019-04-03T11:39:11.234Z,8.80
2019-04-03T11:40:04.241Z,9.10
2019-04-03T11:41:11.698Z,11.50
2019-04-03T11:42:00.988Z,8.30
2019-04-03T11:43:00.934Z,7.90
2019-04-03T11:44:00.970Z,7.40
2019-04-03T11:45:04.108Z,8.10
2019-04-03T11:46:00.847Z,8.90
2019-04-03T11:47:00.845Z,9.20
2019-04-03T11:48:00.839Z,8.20
2019-04-03T11:49:01.134Z,8.20
2019-04-03T11:50:01.063Z,9.60
2019-04-03T11:51:00.830Z,11.10
2019-04-03T11:52:01.856Z,9.50
2019-04-03T11:53:02.387Z,5.80
2019-04-03T11:54:01.131Z,10.40
2019-04-03T11:55:00.818Z,7.50
2019-04-03T11:56:00.967Z,9.60
2019-04-03T11:57:01.109Z,6.60
2019-04-03T11:58:00.810Z,8.70
2019-04-03T11:59:00.926Z,6.50
2019-04-03T12:00:01.057Z,6.60
2019-04-03T12:01:00.800Z,6.30
2019-04-03T12:02:00.857Z,6.60
2019-04-03T12:03:00.794Z,7.40
2019-04-03T12:04:00.789Z,5.90
2019-04-03T12:05:00.828Z,5.10
2019-04-03T12:06:00.787Z,5.70
2019-04-03T12:07:00.781Z,7.90
2019-04-03T12:08:00.778Z,6.00
2019-04-03T12:09:01.211Z,6.60
2019-04-03T12:10:02.880Z,7.30
2019-04-03T12:11:00.769Z,6.10
2019-04-03T12:12:01.241Z,6.30
2019-04-03T12:13:03.481Z,5.60
2019-04-03T12:14:00.759Z,8.00
2019-04-03T12:15:00.758Z,6.30
2019-04-03T12:16:00.754Z,5.00
2019-04-03T12:17:00.751Z,4.60
2019-04-03T12:18:01.668Z,5.90
2019-04-03T12:19:00.838Z,5.00
2019-04-03T12:20:00.960Z,5.90
2019-04-03T12:21:00.940Z,6.20
2019-04-03T12:22:00.918Z,5.10
2019-04-03T12:23:00.733Z,7.40
2019-04-03T12:24:00.733Z,6.70
2019-04-03T12:25:00.741Z,5.70
2019-04-03T12:26:00.720Z,6.30
2019-04-03T12:27:01.016Z,8.40
2019-04-03T12:28:01.111Z,8.80
2019-04-03T12:29:00.712Z,5.80
2019-04-03T12:30:00.822Z,8.80
2019-04-03T12:31:00.705Z,6.80
2019-04-03T12:32:02.803Z,6.80
2019-04-03T12:33:01.034Z,5.80
2019-04-03T12:34:04.455Z,5.30
2019-04-03T12:35:00.994Z,6.20
2019-04-03T12:36:00.805Z,5.30
2019-04-03T12:37:00.688Z,4.10
2019-04-03T12:38:00.685Z,4.40
2019-04-03T12:39:00.930Z,4.80
2019-04-03T12:40:01.338Z,7.30
2019-04-03T12:41:03.917Z,6.90
2019-04-03T12:42:00.674Z,5.50
2019-04-03T12:43:00.672Z,5.30
2019-04-03T12:44:00.671Z,8.60
2019-04-03T12:45:00.667Z,5.80
2019-04-03T12:46:02.665Z,7.80
2019-04-03T12:47:00.663Z,5.10
2019-04-03T12:48:01.011Z,5.10
2019-04-03T12:49:00.743Z,4.80
2019-04-03T12:50:00.655Z,7.20
2019-04-03T12:51:01.115Z,6.90
2019-04-03T12:52:03.041Z,5.90
2019-04-03T12:53:00.720Z,4.30
2019-04-03T12:54:00.642Z,4.40
2019-04-03T12:55:00.840Z,6.10
2019-04-03T12:56:00.754Z,4.90
2019-04-03T12:57:01.771Z,4.70
2019-04-03T12:58:02.402Z,7.00
2019-04-03T12:59:00.810Z,4.80
2019-04-03T13:00:00.625Z,9.40
2019-04-03T13:01:00.624Z,6.80
2019-04-03T13:02:00.621Z,4.90
2019-04-03T13:03:00.620Z,7.10
2019-04-03T13:04:00.614Z,5.00
2019-04-03T13:05:01.485Z,4.60
2019-04-03T13:06:00.609Z,6.80
2019-04-03T13:07:01.077Z,6.10
2019-04-03T13:08:00.890Z,5.00
2019-04-03T13:09:00.616Z,6.60
2019-04-03T13:10:00.596Z,5.30
2019-04-03T13:11:00.777Z,4.30
2019-04-03T13:12:00.590Z,4.80
2019-04-03T13:13:01.417Z,4.30
2019-04-03T13:14:00.586Z,7.20